Grissom ARB Airport Peru US
ICAO: KGUS
IATA: GUS
Category: Large
Scheduled Services: No

Elevation: 812 ft
TransAlt. 18000 ft.

Airport Communications:
APP:121.05
ATIS:108.45
CLNC DEL:120
DEP:121.05
GND:128.425
PMSV METRO:34.46
PTD:37.22
TWR:133.7

KGUS Zoom In..

If you have problems with the map follow the link
https://www.worldairports.se/pages/airport.php?
ICAO=KGUS

Runways:

(A) RW 05 length 12501 ft width 200 ft
ILS 109.50 / hdg 46

(B) RW 23 length 12501 ft width 200 ft
ILS 109.50 / hdg 226

Location; KGUS
Day. 23 / Time. 17.56 Zulu
* Altimeter: 30.23
* Temperature: 13° c. 55.4°f.
* Wind from: 340° Speed 11 kn with Gusts up to 16 kn.
Dewpoint: 03° c.
Visibility: 10 Statute Miles.
Clouds: Few 4300 ft.

KGUS 231756Z AUTO 34011G16KT 10SM FEW043 13/03 A3023 RMK AO2 SLP242 T01280029 10129 20013 $


Wind From 340°
Speed 11 kn.

 
 
jpsmedia.com for Web Design worldairports.se 2018   terms of use